createdAt,value
2023-03-21T00:02:35.569Z,9.41
2023-03-21T00:07:32.511Z,9.32
2023-03-21T00:12:25.903Z,7.99
2023-03-21T00:17:22.460Z,9.16
2023-03-21T00:22:16.086Z,7.92
2023-03-21T00:27:38.390Z,9.01
2023-03-21T00:32:24.890Z,9.09
2023-03-21T00:37:19.140Z,8.24
2023-03-21T00:42:13.816Z,9.30
2023-03-21T00:47:08.227Z,9.46
2023-03-21T00:52:14.685Z,9.54
2023-03-21T00:57:10.220Z,9.76
2023-03-21T01:02:07.476Z,9.17
2023-03-21T01:07:01.239Z,10.19
2023-03-21T01:11:56.509Z,10.08
2023-03-21T01:16:50.402Z,9.57
2023-03-21T01:21:48.076Z,9.74
2023-03-21T01:26:43.939Z,9.18
2023-03-21T01:31:37.260Z,9.75
2023-03-21T01:36:31.948Z,9.66
2023-03-21T01:41:44.298Z,9.72
2023-03-21T01:46:56.999Z,9.69
2023-03-21T01:52:12.804Z,9.05
2023-03-21T01:57:17.785Z,9.11
2023-03-21T02:02:20.879Z,9.18
2023-03-21T02:07:37.009Z,9.72
2023-03-21T02:12:33.733Z,9.64
2023-03-21T02:17:36.967Z,9.82
2023-03-21T02:23:05.037Z,9.80
2023-03-21T02:28:09.546Z,9.65
2023-03-21T02:33:30.145Z,9.91
2023-03-21T02:38:30.481Z,9.79
2023-03-21T02:43:32.392Z,9.57
2023-03-21T02:48:48.136Z,9.43
2023-03-21T02:54:13.019Z,9.63
2023-03-21T02:59:08.248Z,9.53
2023-03-21T03:04:02.484Z,9.62
2023-03-21T03:09:16.064Z,9.45
2023-03-21T03:14:56.525Z,9.00
2023-03-21T03:20:24.116Z,9.06
2023-03-21T03:25:32.657Z,9.44
2023-03-21T03:30:42.251Z,9.72
2023-03-21T03:35:41.214Z,9.76
2023-03-21T03:40:42.373Z,9.59
2023-03-21T03:45:48.756Z,9.96
2023-03-21T03:50:48.524Z,9.68
2023-03-21T03:55:48.710Z,9.57
2023-03-21T04:00:43.849Z,9.51
2023-03-21T04:05:37.308Z,9.80
2023-03-21T04:10:31.778Z,9.65
2023-03-21T04:15:28.386Z,9.20
2023-03-21T04:20:43.492Z,9.70
2023-03-21T04:25:44.656Z,8.62
2023-03-21T04:31:00.258Z,9.05
2023-03-21T04:35:59.085Z,9.36
2023-03-21T04:40:57.895Z,9.22
2023-03-21T04:45:53.554Z,9.36
2023-03-21T04:50:47.355Z,8.77
2023-03-21T04:55:40.686Z,8.92
2023-03-21T05:00:37.606Z,9.55
2023-03-21T05:05:33.850Z,9.43
2023-03-21T05:10:27.102Z,9.56
2023-03-21T05:15:23.066Z,9.55
2023-03-21T05:20:20.286Z,9.47
2023-03-21T05:25:18.184Z,9.52
2023-03-21T05:30:25.171Z,9.17
2023-03-21T05:35:24.495Z,9.32
2023-03-21T05:40:21.345Z,9.30
2023-03-21T05:45:15.405Z,9.49
2023-03-21T05:50:11.479Z,9.19
2023-03-21T05:55:07.613Z,9.20
2023-03-21T06:00:03.307Z,9.67
2023-03-21T06:05:09.084Z,9.88
2023-03-21T06:10:02.652Z,9.99
2023-03-21T06:14:58.862Z,10.09
2023-03-21T06:20:01.204Z,10.05
2023-03-21T06:25:10.359Z,10.25
2023-03-21T06:30:05.042Z,10.14
2023-03-21T06:35:05.903Z,10.54
2023-03-21T06:39:59.397Z,10.66
2023-03-21T06:44:52.707Z,10.72
2023-03-21T06:49:46.031Z,10.81
2023-03-21T06:54:41.525Z,11.04
2023-03-21T06:59:39.057Z,11.12
2023-03-21T07:05:01.142Z,11.27
2023-03-21T07:09:57.738Z,11.53
2023-03-21T07:14:54.327Z,11.85
2023-03-21T07:19:47.553Z,11.88
2023-03-21T07:24:43.479Z,12.28
2023-03-21T07:29:38.129Z,12.53
2023-03-21T07:34:33.903Z,12.77
2023-03-21T07:39:29.919Z,12.86
2023-03-21T07:44:23.411Z,13.18
2023-03-21T07:49:34.146Z,13.10
2023-03-21T07:54:28.815Z,13.16
2023-03-21T07:59:22.333Z,13.53
2023-03-21T08:04:18.604Z,13.83
2023-03-21T08:09:13.140Z,14.33
2023-03-21T08:14:06.289Z,14.50
2023-03-21T08:18:59.603Z,14.73
2023-03-21T08:23:55.386Z,14.90
2023-03-21T08:28:50.222Z,14.98
2023-03-21T08:33:43.529Z,15.09
2023-03-21T08:38:37.131Z,15.67
2023-03-21T08:43:30.553Z,15.77
2023-03-21T08:48:25.718Z,16.71
2023-03-21T08:53:22.266Z,17.28
2023-03-21T08:58:15.598Z,18.26
2023-03-21T09:03:11.215Z,18.74
2023-03-21T09:08:06.600Z,19.09
2023-03-21T09:12:59.926Z,19.83
2023-03-21T09:17:54.490Z,19.88
2023-03-21T09:22:48.977Z,20.41
2023-03-21T09:27:47.171Z,21.03
2023-03-21T09:32:43.007Z,21.41
2023-03-21T09:37:38.435Z,21.53
2023-03-21T09:42:41.797Z,21.60
2023-03-21T09:47:45.500Z,21.27
2023-03-21T09:52:48.230Z,20.99
2023-03-21T09:57:45.885Z,20.41
2023-03-21T10:02:45.677Z,19.99
2023-03-21T10:07:44.674Z,19.90
2023-03-21T10:12:38.000Z,19.89
2023-03-21T10:17:35.218Z,19.64
2023-03-21T10:22:29.725Z,19.84
2023-03-21T10:27:22.848Z,19.74
2023-03-21T10:32:19.457Z,19.59
2023-03-21T10:37:13.973Z,18.87
2023-03-21T10:42:18.668Z,19.43
2023-03-21T10:47:11.979Z,19.19
2023-03-21T10:52:08.559Z,18.78
2023-03-21T10:57:05.969Z,18.69
2023-03-21T11:02:00.604Z,18.69
2023-03-21T11:06:57.018Z,18.49
2023-03-21T11:11:55.932Z,18.47
2023-03-21T11:16:52.304Z,18.42
2023-03-21T11:21:47.351Z,18.33
2023-03-21T11:26:43.602Z,18.10
2023-03-21T11:31:41.303Z,18.17
2023-03-21T11:36:39.355Z,18.05
2023-03-21T11:41:35.718Z,17.03
2023-03-21T11:46:33.358Z,17.85
2023-03-21T11:51:34.849Z,18.08
2023-03-21T11:56:31.282Z,17.93
2023-03-21T12:01:33.496Z,17.77
2023-03-21T12:06:31.727Z,17.89
2023-03-21T12:11:37.353Z,17.73
2023-03-21T12:16:44.669Z,17.65
2023-03-21T12:21:48.101Z,17.68
2023-03-21T12:26:53.383Z,16.79
2023-03-21T12:31:59.355Z,17.26
2023-03-21T12:37:14.469Z,17.18
2023-03-21T12:42:25.718Z,17.28
2023-03-21T12:47:24.775Z,17.30
2023-03-21T12:52:21.594Z,17.33
2023-03-21T12:57:21.388Z,17.44
2023-03-21T13:02:27.934Z,17.53
2023-03-21T13:07:25.327Z,17.51
2023-03-21T13:12:29.828Z,17.73
2023-03-21T13:17:31.510Z,17.83
2023-03-21T13:22:29.391Z,17.67
2023-03-21T13:27:29.753Z,17.68
2023-03-21T13:32:30.906Z,17.65
2023-03-21T13:37:28.092Z,16.92
2023-03-21T13:42:31.910Z,17.89
2023-03-21T13:47:40.632Z,17.70
2023-03-21T13:52:33.755Z,17.88
2023-03-21T13:57:40.322Z,17.81
2023-03-21T14:02:39.652Z,17.96
2023-03-21T14:07:35.041Z,17.62
2023-03-21T14:12:30.525Z,17.81
2023-03-21T14:17:26.606Z,17.72
2023-03-21T14:22:21.340Z,17.83
2023-03-21T14:27:15.030Z,17.97
2023-03-21T14:32:19.118Z,18.01
2023-03-21T14:37:12.790Z,18.04
2023-03-21T14:42:09.415Z,17.98
2023-03-21T14:47:03.984Z,17.99
2023-03-21T14:52:00.149Z,17.84
2023-03-21T14:57:00.121Z,17.98
2023-03-21T15:01:56.016Z,17.70
2023-03-21T15:06:57.822Z,17.96
2023-03-21T15:11:53.617Z,17.60
2023-03-21T15:16:47.829Z,17.70
2023-03-21T15:21:56.200Z,17.40
2023-03-21T15:26:50.638Z,17.35
2023-03-21T15:31:45.774Z,17.38
2023-03-21T15:36:48.061Z,17.14
2023-03-21T15:41:43.154Z,17.13
2023-03-21T15:46:43.196Z,17.09
2023-03-21T15:51:42.679Z,17.14
2023-03-21T15:56:37.538Z,16.98
2023-03-21T16:01:35.018Z,16.19
2023-03-21T16:07:02.658Z,16.62
2023-03-21T16:12:02.778Z,16.72
2023-03-21T16:16:59.362Z,16.32
2023-03-21T16:21:53.524Z,16.32
2023-03-21T16:27:00.156Z,16.27
2023-03-21T16:32:00.806Z,16.01
2023-03-21T16:37:04.762Z,15.27
2023-03-21T16:42:01.484Z,15.44
2023-03-21T16:46:55.019Z,15.55
2023-03-21T16:51:49.701Z,16.31
2023-03-21T16:56:50.492Z,16.31
2023-03-21T17:01:52.164Z,16.07
2023-03-21T17:06:47.597Z,15.62
2023-03-21T17:11:51.723Z,15.88
2023-03-21T17:16:47.879Z,15.40
2023-03-21T17:21:41.573Z,15.67
2023-03-21T17:26:35.034Z,15.53
2023-03-21T17:31:47.574Z,15.92
2023-03-21T17:36:45.041Z,15.19
2023-03-21T17:41:38.499Z,15.35
2023-03-21T17:46:37.926Z,15.69
2023-03-21T17:51:33.312Z,15.80
2023-03-21T17:56:30.105Z,15.21
2023-03-21T18:01:24.218Z,15.53
2023-03-21T18:06:28.922Z,15.02
2023-03-21T18:11:25.844Z,15.72
2023-03-21T18:16:28.277Z,15.32
2023-03-21T18:21:38.093Z,14.58
2023-03-21T18:26:33.004Z,15.06
2023-03-21T18:31:31.482Z,15.56
2023-03-21T18:36:27.819Z,15.02
2023-03-21T18:41:24.888Z,15.50
2023-03-21T18:46:19.998Z,15.51
2023-03-21T18:51:13.504Z,14.97
2023-03-21T18:56:10.229Z,15.24
2023-03-21T19:01:07.023Z,15.23
2023-03-21T19:06:03.907Z,15.45
2023-03-21T19:11:00.277Z,15.43
2023-03-21T19:15:56.698Z,15.04
2023-03-21T19:20:53.614Z,15.11
2023-03-21T19:25:48.370Z,14.53
2023-03-21T19:30:49.849Z,14.81
2023-03-21T19:35:43.929Z,15.24
2023-03-21T19:40:40.020Z,15.20
2023-03-21T19:45:39.470Z,14.96
2023-03-21T19:50:57.998Z,15.13
2023-03-21T19:55:54.095Z,14.57
2023-03-21T20:00:49.397Z,14.83
2023-03-21T20:05:45.256Z,14.87
2023-03-21T20:10:38.928Z,14.86
2023-03-21T20:15:32.361Z,14.32
2023-03-21T20:20:28.093Z,14.88
2023-03-21T20:25:23.191Z,13.79
2023-03-21T20:30:19.024Z,14.82
2023-03-21T20:35:21.149Z,14.80
2023-03-21T20:40:26.674Z,13.85
2023-03-21T20:45:20.775Z,14.67
2023-03-21T20:50:15.765Z,14.57
2023-03-21T20:55:11.631Z,14.73
2023-03-21T21:00:13.786Z,14.67
2023-03-21T21:05:25.325Z,14.60
2023-03-21T21:10:22.453Z,14.15
2023-03-21T21:15:19.686Z,14.28
2023-03-21T21:20:20.663Z,14.38
2023-03-21T21:25:16.050Z,14.14
2023-03-21T21:30:20.373Z,14.19
2023-03-21T21:35:13.762Z,13.99
2023-03-21T21:40:13.017Z,13.93
2023-03-21T21:45:08.691Z,13.86
2023-03-21T21:50:03.480Z,13.63
2023-03-21T21:54:56.834Z,13.28
2023-03-21T21:59:54.281Z,13.39
2023-03-21T22:04:47.525Z,13.45
2023-03-21T22:09:42.438Z,13.46
2023-03-21T22:14:36.019Z,13.15
2023-03-21T22:19:32.616Z,13.45
2023-03-21T22:24:26.157Z,13.08
2023-03-21T22:29:20.896Z,13.42
2023-03-21T22:34:14.089Z,13.39
2023-03-21T22:39:07.430Z,12.87
2023-03-21T22:44:00.892Z,13.02
2023-03-21T22:48:55.707Z,13.31
2023-03-21T22:53:51.304Z,13.17
2023-03-21T22:58:44.501Z,12.64
2023-03-21T23:03:38.402Z,13.08
2023-03-21T23:08:32.965Z,12.96
2023-03-21T23:13:26.644Z,13.11
2023-03-21T23:18:19.912Z,13.19
2023-03-21T23:23:13.143Z,12.91
2023-03-21T23:28:08.337Z,13.03
2023-03-21T23:33:01.512Z,12.33
2023-03-21T23:37:54.614Z,12.93
2023-03-21T23:42:47.740Z,12.91
2023-03-21T23:47:42.337Z,12.49
2023-03-21T23:52:35.785Z,12.64
2023-03-21T23:57:29.010Z,12.53
